This site, now in its 15th season, is a labour of love and fun from one of Ottawa's most avid time trialists and number crunchers. It adheres to and is permitted by the laws of Canada, promotes the objectives of every bicycle club whose results are shown, and is donated free of charge by myself for your enjoyment and usage. If you would like results from series you ride in to be shown here, give me (celia@drmath.ca) a shout!


Index Page
ATT OTT WTT AATT CFCTT VVVTT
Help resultformat:
Case-sensitive

OBC Open TT Series - 2019-Jun-06 - 15km (Rockliffe Pkwy) (EvtFactor = 0.9118)

Ottawa Weather (18:00): Mainly Sunny. Temp.erature: 22.4C, Wind: WSW 5km/h, Relative humidity: 35%, Dew point: 6C, Pressure: 101.1kPa, Visibility: 24km
Ottawa Weather (19:00): Mainly Sunny. Temp.erature: 21.9C, Wind: WNW 8km/h, Relative humidity: 37%, Dew point: 7C, Pressure: 101.1kPa, Visibility: 24km.
Ottawa Weather (20:00): Sunny. Temp.erature: 19.4C, Wind: WNW 13km/h, Relative humidity: 47%, Dew point: 8C, Pressure: 101.1kPa, Visibility: 24km.

Send photos with description (when/where/what) of yourself on or off of bike to celia@drmath.ca

 
 

BESTS?
 
1 Purificati, Justin RWR 19:24 46.392 1/41 SEM 1/3 0.9795
2 Sherboneau, Mark RWR 19:27 46.272 2/41 VBM 1/10 0.9846
3 Boileau, Greg NTF 19:39 45.802 3/41 VBM 2/10  
4 Brodeur, Martin OBC 20:15 44.444 4/41 VBM 3/10 1.0630
5 Diaz, Rodrigo  OBC/EUR 20:25 44.082 5/41 VBM 4/10 1.0148
6 Katz, Joel  OBC/RWR 20:31 43.867 6/41 VDM 1/4 1.0420
7 Tsilemos, Jim RWR 20:56 42.994 7/41 VCM 1/10 1.1451
8 Rivers, Grahame TEK 21:06 42.654 8/41 VAM 1/3 0.9882
9 Lagueux, Frederic RPO 21:14 42.386 9/41 VBM 5/10 1.1898
10 Graveline, Marc OBC 21:35 41.699 10/41 VCM 2/10 1.0567
11 Desjardins, Joey
Para handcycle
OBC 21:42 41.475 11/41 VAM 2/3  
12 Campbell, Colin  OBC 22:11 40.571 12/41 VCM 3/10 1.0574
13 Stephenson, Jennifer  OBC 22:23 40.208 13/41 VBF 1/3  
14 Till, Michael WQW 22:25 40.149 14/41 VCM 4/10 1.0545
15 Thompson, William OBC 22:33 39.911 15/41 VCM 5/10  
16 Boisvenue, Linda OBC 22:41 39.677 16/41 VBF 2/3 1.2472
17 Posthuma, Hans  OBC 22:42 39.648 17/41 VDM 2/4 1.0516
18 Redshaw, Russ  OBC 23:01 39.102 18/41 VDM 3/4 1.0441
19 Burge, Larry  OBC 23:05 38.989 19/41 VCM 6/10 0.9935
20 Dumas, Dominik OBC 23:15 38.710 20/41 SEM 2/3 1.1417
21 DeVidi, Robert  OBC 23:24 38.462 21/41 VCM 7/10 1.0064
22 Arsenault, Ariane OBC 23:44 37.921 22/41 CAF 1/1 0.9979
23 Metsaranta, Juha OBC 23:57 37.578 23/41 VBM 6/10  
24 Manners, Mark WQW 23:58 37.552 24/41 VAM 3/3 0.6258
25 Déry, Nicolas  OBC 24:05 37.370 25/41 VBM 7/10  
26 Somogyi, Michel OBC 24:12 37.190 26/41 VBM 8/10  
27 Manjikian, Sevak OBC 24:23 36.910 27/41 VBM 9/10  
28 Tkalec, Heather  EUR 24:28 36.785 28/41 VBF 3/3 1.0520
29 Hauschildt, Gunter OBC 24:38 36.536 29/41 VCM 8/10 1.1401
30 Balint, John OBC 25:07 35.833 30/41 VEM 1/3 1.1767
31 Adams, Michael OBC 25:21 35.503 31/41 VCM 9/10 1.1553
32 Burdett, Avery  OBC 25:30 35.294 32/41 VFM 1/1 1.0297
33 Austen, Ian  OBC 25:36 35.156 33/41 VDM 4/4 1.0884
34 Lau, Adrian OBC 25:37 35.133 34/41 SEM 3/3 1.1579
35 Deschamps, Martin WQW 25:47 34.906 35/41 VBM 10/10 1.1420
36 Dumas, Marcel OBC 25:55 34.727 36/41 VCM 10/10  
37 Imbrogno, Giorgio  OBC 26:36 33.835 37/41 VEM 2/3  
38 Moerman, Bram  OBC 27:05 33.231 38/41 VEM 3/3 1.0565
39 McInnis, Celia  OBC 27:30 32.727 39/41 VDF 1/1 1.1073
40 Dumas, Nathan OBC 28:23 31.709 40/41 JUM 1/1 1.1094
41 Sherboneau, Derek OBC 30:24 29.605 41/41 CAM 1/1 1.2657
 
Average Speed of all of the above 41 finishes (615km in 16:06:10):38.192
>>>Average of the Average Speeds for these 41 finishes38.610<<<
 

The number of data records shown above is 41
The server processing of your query took: 1 wallclock secs ( 0.09 usr + 0.00 sys = 0.09 CPU)

Thanks to our Helpers: Michel Bernier, Mark Manners, Alex McKnight, Jess Raymond, Peter Tregunno

     


Apr 19 (Good Friday)
May 2 May 7 (10km) May 9 May 14 (10km) May 16 May 21 (10km) May 23 May 28 May 28 (10km) May 30
Jun 2 (40km) Jun 4 Jun 4
  Jun 6  
Jun 11 Jun 11 Jun 13 Jun 18 Jun 18 Jun 20 Jun 25 Jun 25 Jun 27 Jun 30 (40km)
Jul 2 Jul 2 Jul 4 Jul 9 Jul 9 Jul 11 (cancelled - lightning) Jul 16 Jul 16 Jul 18 Jul 23 Jul 23 Jul 25 Jul 28 (40km) Jul 30 Jul 30
Aug 1 Aug 6 Aug 6 Aug 8 Aug 13 Aug 13 Aug 15

OTT Rankings
Best       Best by category
WTT Rankings for All Participants
5 Best Speeds (≥3 15km, ≤1 10km)     5 Best Speeds (≥3 15km, ≤1 10km) by category
OTT Best Three 15km Rankings
Overall     by category     age-Hcap Female   age-Hcap Male
Other years
TT Calculator All TT People All TT events
ABC Home VVV Home
CKAP GOLD MEDAL
Other Links

Note: OTT data from 2003 through 2006-Apr-14 and 2007-Apr-06-? and WTT from 2008-? is taken from the official OBC site.

Please send your comments and suggestions to: Celia McInnis
Copyright © 1998-2011 Celia McInnis. All rights reserved. Links are welcomed.